Time;durP1;ratioP1;P1;durP2;ratioP2;P2;SDS_P1;SDS_P2;PMS_P1;PMS_P2;Temp;Humidity;BMP_temperature;BMP_pressure;BME280_temperature;BME280_humidity;BME280_pressure;Samples;Min_cycle;Max_cycle;Signal;HPM_P1;HPM_P2
2021/08/18 00:00:39;;;;;;;10.15;5.57;;;;;;;23.90;55.91;99598.16;5088596;28;20032;-22
2021/08/18 00:03:04;;;;;;;10.25;5.53;;;;;;;24.10;55.80;99607.63;5090627;28;20468;-22
2021/08/18 00:05:30;;;;;;;10.45;5.95;;;;;;;24.51;54.33;99597.38;5090572;28;20028;-22
2021/08/18 00:07:55;;;;;;;9.48;6.25;;;;;;;24.64;53.94;99604.53;5091029;28;20032;-22
2021/08/18 00:10:22;;;;;;;11.63;6.07;;;;;;;24.71;53.10;99593.94;5090245;28;20035;-21
2021/08/18 00:12:48;;;;;;;12.13;5.90;;;;;;;23.77;55.98;99585.50;5090566;28;20036;-21
2021/08/18 00:15:14;;;;;;;10.43;5.95;;;;;;;23.35;57.45;99577.69;5072026;28;20407;-21
2021/08/18 00:17:40;;;;;;;11.85;5.90;;;;;;;23.67;56.23;99579.19;5090206;28;20115;-22
2021/08/18 00:20:05;;;;;;;8.88;6.07;;;;;;;23.26;56.89;99577.66;5071826;28;20032;-21
2021/08/18 00:22:31;;;;;;;9.43;5.88;;;;;;;23.36;56.68;99581.22;5072186;28;20028;-21
2021/08/18 00:24:56;;;;;;;13.40;6.88;;;;;;;23.16;57.32;99558.91;5090491;28;20783;-22
2021/08/18 00:27:22;;;;;;;14.30;6.93;;;;;;;23.01;58.23;99572.94;5090184;28;20028;-21
2021/08/18 00:29:47;;;;;;;11.00;7.10;;;;;;;22.86;58.19;99572.22;5071857;28;20070;-21
2021/08/18 00:32:13;;;;;;;10.77;6.32;;;;;;;22.71;58.49;99564.47;5089767;28;20024;-22
2021/08/18 00:34:38;;;;;;;11.77;6.95;;;;;;;23.55;55.96;99565.41;5090164;28;20086;-22
2021/08/18 00:37:03;;;;;;;12.70;7.07;;;;;;;23.91;54.80;99575.25;5090452;28;20032;-22
2021/08/18 00:39:29;;;;;;;11.60;6.55;;;;;;;23.95;54.53;99557.16;5090232;28;20024;-21
2021/08/18 00:41:54;;;;;;;13.07;6.53;;;;;;;23.95;54.83;99554.44;5090203;28;20109;-21
2021/08/18 00:44:20;;;;;;;15.38;6.80;;;;;;;24.17;54.51;99560.81;5089710;28;20035;-22
2021/08/18 00:46:57;;;;;;;11.88;6.68;;;;;;;24.17;54.04;99547.19;5089761;28;20472;-22
2021/08/18 00:49:22;;;;;;;14.23;6.90;;;;;;;23.28;56.81;99550.16;5089561;28;20057;-22
2021/08/18 00:51:49;;;;;;;9.70;6.20;;;;;;;23.14;57.63;99554.91;5089911;28;20269;-21
2021/08/18 00:54:15;;;;;;;9.93;6.72;;;;;;;23.07;57.33;99533.63;5089528;28;20028;-21
2021/08/18 00:56:40;;;;;;;10.57;6.53;;;;;;;22.74;58.01;99549.44;5089705;28;20050;-21
2021/08/18 00:59:06;;;;;;;10.65;6.15;;;;;;;22.17;59.16;99512.81;5089466;28;20048;-22
2021/08/18 01:01:34;;;;;;;11.10;6.43;;;;;;;22.44;57.99;99525.47;5071377;28;20507;-21
2021/08/18 01:04:00;;;;;;;9.80;7.35;;;;;;;22.55;58.00;99527.94;5089353;28;20513;-22
2021/08/18 01:06:26;;;;;;;11.10;7.07;;;;;;;22.50;58.08;99537.03;5089102;28;20036;-22
2021/08/18 01:08:52;;;;;;;10.55;6.80;;;;;;;22.78;57.42;99531.38;5089256;28;20536;-21
2021/08/18 01:11:17;;;;;;;10.82;7.10;;;;;;;22.90;57.65;99528.09;5088745;28;20039;-21
2021/08/18 01:13:44;;;;;;;12.02;6.97;;;;;;;22.64;58.85;99523.34;5071136;28;20480;-21
2021/08/18 01:16:09;;;;;;;11.43;6.30;;;;;;;22.50;59.61;99525.38;5070876;28;20107;-21
2021/08/18 01:18:35;;;;;;;11.85;7.38;;;;;;;22.52;59.62;99518.50;5089090;28;20145;-21
2021/08/18 01:21:00;;;;;;;11.07;6.63;;;;;;;22.69;59.23;99539.50;5089142;28;20031;-21
2021/08/18 01:23:26;;;;;;;9.77;6.78;;;;;;;22.56;59.75;99526.84;5089047;28;20048;-21
2021/08/18 01:25:53;;;;;;;10.40;7.20;;;;;;;22.54;59.73;99524.41;5088987;28;20031;-21
2021/08/18 01:28:18;;;;;;;10.18;6.57;;;;;;;22.55;59.79;99522.50;5088610;28;20040;-22
2021/08/18 01:30:43;;;;;;;9.82;6.15;;;;;;;22.58;59.41;99527.31;5089130;28;20085;-21
2021/08/18 01:33:13;;;;;;;10.10;6.30;;;;;;;22.63;59.28;99527.19;5070720;28;20486;-22
2021/08/18 01:35:44;;;;;;;13.18;7.07;;;;;;;22.55;59.28;99517.06;5089018;28;20109;-22
2021/08/18 01:38:11;;;;;;;9.85;7.40;;;;;;;22.42;59.73;99519.56;5088685;28;20053;-21
2021/08/18 01:40:36;;;;;;;11.85;7.43;;;;;;;22.07;60.48;99503.00;5088849;28;20038;-21
2021/08/18 01:43:02;;;;;;;9.60;6.30;;;;;;;22.14;60.40;99509.91;5088683;28;20020;-21
2021/08/18 01:45:31;;;;;;;11.95;7.35;;;;;;;22.17;60.25;99528.31;5088633;28;20399;-21
2021/08/18 01:47:57;;;;;;;19.02;7.38;;;;;;;22.12;60.03;99506.72;5070282;28;20103;-21
2021/08/18 01:50:23;;;;;;;11.57;6.70;;;;;;;22.05;60.22;99518.81;5088440;28;20411;-21
2021/08/18 01:52:52;;;;;;;9.73;6.88;;;;;;;22.24;59.89;99523.28;5088298;28;20032;-21
2021/08/18 01:55:18;;;;;;;9.90;7.38;;;;;;;22.10;60.33;99531.47;5088376;28;20560;-22
2021/08/18 01:57:44;;;;;;;10.65;7.15;;;;;;;22.24;59.92;99528.72;5070107;28;20036;-22
2021/08/18 02:00:10;;;;;;;8.88;6.25;;;;;;;22.10;60.22;99527.94;5088025;28;20043;-21
2021/08/18 02:02:36;;;;;;;10.65;7.00;;;;;;;21.90;60.62;99513.75;5088156;28;20058;-22
2021/08/18 02:05:01;;;;;;;10.88;7.10;;;;;;;21.91;60.42;99514.56;5088448;28;20036;-22
2021/08/18 02:07:27;;;;;;;15.20;7.53;;;;;;;22.13;59.76;99532.75;5088274;28;20024;-21
2021/08/18 02:09:52;;;;;;;11.38;7.40;;;;;;;21.87;60.59;99531.44;5088158;28;20032;-21
2021/08/18 02:12:18;;;;;;;11.40;6.63;;;;;;;21.80;61.09;99530.25;5087959;28;20576;-21
2021/08/18 02:14:43;;;;;;;12.15;6.63;;;;;;;21.73;61.47;99535.31;5070131;28;20028;-21
2021/08/18 02:17:09;;;;;;;11.43;6.72;;;;;;;21.90;61.14;99545.50;5088077;28;20085;-21
2021/08/18 02:19:34;;;;;;;11.70;7.15;;;;;;;21.77;61.50;99536.31;5088186;28;20027;-21
2021/08/18 02:22:00;;;;;;;11.25;7.07;;;;;;;21.88;61.60;99562.09;5087467;28;20031;-22
2021/08/18 02:24:25;;;;;;;11.68;7.05;;;;;;;21.81;61.80;99553.59;5087127;28;20024;-21
2021/08/18 02:26:51;;;;;;;13.63;6.95;;;;;;;21.90;61.71;99565.31;5069623;28;20058;-21
2021/08/18 02:29:16;;;;;;;10.32;7.22;;;;;;;22.21;60.75;99570.03;5087916;28;20078;-21
2021/08/18 02:31:42;;;;;;;11.10;7.70;;;;;;;22.22;60.38;99566.22;5087821;28;20081;-21
2021/08/18 02:34:09;;;;;;;10.52;7.28;;;;;;;22.59;59.27;99564.25;5087786;28;20498;-21
2021/08/18 02:36:38;;;;;;;19.60;8.18;;;;;;;22.24;59.90;99555.88;5087500;28;20453;-21
2021/08/18 02:39:03;;;;;;;13.93;8.13;;;;;;;22.07;60.81;99556.53;5087575;28;20032;-21
2021/08/18 02:41:29;;;;;;;25.23;8.50;;;;;;;22.00;60.79;99551.50;5087723;28;20040;-21
2021/08/18 02:43:54;;;;;;;14.88;8.50;;;;;;;22.34;59.89;99566.47;5087754;28;20056;-21
2021/08/18 02:46:20;;;;;;;11.70;8.52;;;;;;;22.24;60.42;99578.41;5087592;28;20399;-21
2021/08/18 02:48:45;;;;;;;10.90;7.80;;;;;;;22.50;59.58;99577.00;5087714;28;20048;-21
2021/08/18 02:51:11;;;;;;;11.23;7.30;;;;;;;22.77;58.32;99574.09;5087523;28;20035;-22
2021/08/18 02:53:36;;;;;;;15.00;8.40;;;;;;;22.80;58.36;99588.97;5087394;28;20024;-21
2021/08/18 02:56:02;;;;;;;12.27;7.70;;;;;;;22.66;59.21;99584.44;5087363;28;20028;-21
2021/08/18 02:58:27;;;;;;;16.48;8.20;;;;;;;23.13;57.17;99594.94;5087240;28;20423;-21
2021/08/18 03:00:53;;;;;;;16.73;7.97;;;;;;;23.48;56.01;99592.31;5087520;28;20403;-21
2021/08/18 03:03:18;;;;;;;208.77;19.40;;;;;;;23.49;56.05;99593.09;5069477;28;20031;-21
2021/08/18 03:05:43;;;;;;;62.92;11.45;;;;;;;23.66;55.10;99595.88;5087158;28;20027;-22
2021/08/18 03:08:09;;;;;;;14.18;7.80;;;;;;;23.69;54.66;99597.16;5087152;28;20032;-21
2021/08/18 03:10:34;;;;;;;11.85;7.65;;;;;;;23.78;54.05;99604.25;5087221;28;20400;-21
2021/08/18 03:13:00;;;;;;;12.35;8.50;;;;;;;23.49;55.53;99610.22;5086994;28;20024;-21
2021/08/18 03:15:25;;;;;;;11.18;8.05;;;;;;;22.97;57.05;99610.03;5087197;28;20028;-21
2021/08/18 03:17:51;;;;;;;13.80;8.60;;;;;;;22.67;57.91;99612.41;5087401;28;20039;-21
2021/08/18 03:20:16;;;;;;;13.35;8.45;;;;;;;22.27;59.24;99601.41;5087066;28;20028;-22
2021/08/18 03:22:42;;;;;;;13.25;8.43;;;;;;;22.73;57.88;99616.59;5087115;28;20492;-21
2021/08/18 03:25:08;;;;;;;14.90;8.95;;;;;;;22.76;57.33;99626.03;5087291;28;20024;-22
2021/08/18 03:27:35;;;;;;;11.05;8.45;;;;;;;22.77;57.32;99617.59;5069163;28;20373;-22
2021/08/18 03:30:00;;;;;;;12.95;7.85;;;;;;;22.19;59.45;99629.28;5069227;28;20091;-22
2021/08/18 03:32:26;;;;;;;14.32;8.73;;;;;;;21.70;61.15;99623.59;5068044;28;20028;-21
2021/08/18 03:34:51;;;;;;;14.43;7.68;;;;;;;22.29;60.32;99631.78;5089421;28;20032;-22
2021/08/18 03:37:17;;;;;;;15.52;7.60;;;;;;;22.52;58.59;99627.19;5091013;28;20496;-21
2021/08/18 03:39:42;;;;;;;12.98;7.95;;;;;;;22.45;58.45;99622.19;5090985;28;20043;-21
2021/08/18 03:42:08;;;;;;;11.68;7.70;;;;;;;22.46;58.91;99618.34;5090871;28;20492;-21
2021/08/18 03:44:33;;;;;;;12.40;7.75;;;;;;;22.86;57.84;99615.72;5090978;28;20089;-22
2021/08/18 03:46:59;;;;;;;10.55;7.47;;;;;;;22.83;57.64;99621.78;5091128;28;20040;-22
2021/08/18 03:49:24;;;;;;;12.85;7.10;;;;;;;23.12;56.83;99623.22;5090785;28;20028;-22
2021/08/18 03:51:51;;;;;;;13.40;7.50;;;;;;;23.33;56.00;99625.38;5090898;28;20031;-22
2021/08/18 03:54:16;;;;;;;12.93;7.90;;;;;;;23.49;55.32;99618.38;5090524;28;20484;-21
2021/08/18 03:56:42;;;;;;;12.48;7.68;;;;;;;23.59;55.62;99620.81;5090794;28;20028;-22
2021/08/18 03:59:07;;;;;;;13.57;7.30;;;;;;;23.33;56.45;99618.00;5090769;28;20060;-21
2021/08/18 04:01:32;;;;;;;13.48;7.55;;;;;;;23.47;55.53;99623.34;5090529;28;20032;-21
2021/08/18 04:03:58;;;;;;;16.27;7.55;;;;;;;23.27;55.90;99620.09;5090798;28;20092;-22
2021/08/18 04:06:23;;;;;;;14.57;8.18;;;;;;;23.40;55.66;99615.66;5090521;28;20031;-21
2021/08/18 04:08:49;;;;;;;15.45;7.75;;;;;;;23.45;55.52;99609.25;5090895;28;20852;-21
2021/08/18 04:11:14;;;;;;;16.40;8.40;;;;;;;23.50;55.77;99624.63;5090389;28;20051;-22
2021/08/18 04:13:40;;;;;;;14.80;7.38;;;;;;;23.43;56.02;99617.72;5090542;28;20024;-21
2021/08/18 04:16:05;;;;;;;17.85;7.68;;;;;;;23.22;56.92;99614.78;5072265;28;20040;-21
2021/08/18 04:18:31;;;;;;;18.10;8.73;;;;;;;23.12;56.52;99604.19;5090259;28;20491;-21
2021/08/18 04:20:56;;;;;;;26.90;8.43;;;;;;;23.18;56.59;99608.38;5072201;28;20404;-21
2021/08/18 04:23:21;;;;;;;17.08;8.30;;;;;;;23.47;55.55;99628.78;5090174;28;20028;-21
2021/08/18 04:25:47;;;;;;;18.90;8.48;;;;;;;23.36;56.08;99605.72;5090203;28;20483;-22
2021/08/18 04:28:12;;;;;;;14.57;8.38;;;;;;;23.59;55.56;99628.97;5089914;28;20105;-22
2021/08/18 04:30:38;;;;;;;12.32;8.05;;;;;;;23.56;55.62;99623.38;5090257;28;20028;-22
2021/08/18 04:33:03;;;;;;;17.33;8.30;;;;;;;23.52;55.44;99625.94;5072182;28;20032;-21
2021/08/18 04:35:29;;;;;;;21.67;8.95;;;;;;;23.54;55.48;99634.59;5090075;28;20040;-21
2021/08/18 04:37:54;;;;;;;27.48;8.32;;;;;;;23.59;55.56;99636.34;5090030;28;20055;-22
2021/08/18 04:40:22;;;;;;;14.93;8.32;;;;;;;23.52;56.48;99631.38;5071879;28;20028;-21
2021/08/18 04:42:49;;;;;;;20.63;8.80;;;;;;;23.64;55.37;99642.47;5089863;28;20032;-22
2021/08/18 04:45:15;;;;;;;20.85;8.80;;;;;;;23.75;55.29;99650.34;5089619;28;20127;-22
2021/08/18 04:47:40;;;;;;;18.85;8.20;;;;;;;23.81;54.93;99643.66;5071876;28;20138;-21
2021/08/18 04:50:06;;;;;;;20.23;9.50;;;;;;;23.70;55.90;99631.41;5071315;28;20027;-21
2021/08/18 04:52:32;;;;;;;16.98;9.27;;;;;;;23.57;56.95;99636.66;5089973;28;20032;-21
2021/08/18 04:54:57;;;;;;;17.27;8.85;;;;;;;23.27;56.82;99620.09;5089646;28;20420;-21
2021/08/18 04:57:23;;;;;;;22.10;9.70;;;;;;;23.33;56.34;99644.44;5089605;28;20048;-22
2021/08/18 04:59:48;;;;;;;19.00;8.95;;;;;;;23.29;56.52;99638.00;5089525;28;20424;-22
2021/08/18 05:02:14;;;;;;;20.13;8.90;;;;;;;22.93;57.47;99628.88;5070923;28;20103;-22
2021/08/18 05:04:39;;;;;;;18.17;9.15;;;;;;;22.86;58.06;99621.16;5089431;28;20438;-21
2021/08/18 05:07:05;;;;;;;26.35;11.45;;;;;;;23.35;57.25;99637.53;5089604;28;20035;-22
2021/08/18 05:09:30;;;;;;;24.58;13.38;;;;;;;23.45;57.58;99642.69;5089344;28;20032;-23
2021/08/18 05:11:57;;;;;;;14.15;9.45;;;;;;;23.19;58.75;99633.66;5089529;28;20093;-22
2021/08/18 05:14:22;;;;;;;14.90;9.73;;;;;;;23.46;57.03;99643.53;5089335;28;20138;-21
2021/08/18 05:16:48;;;;;;;18.45;10.45;;;;;;;23.43;58.65;99650.38;5089166;28;20024;-22
2021/08/18 05:19:14;;;;;;;16.65;11.68;;;;;;;23.65;58.14;99654.94;5071109;28;20028;-21
2021/08/18 05:21:39;;;;;;;21.50;12.70;;;;;;;23.71;57.80;99643.91;5089174;28;20036;-22
2021/08/18 05:24:05;;;;;;;25.27;15.95;;;;;;;23.79;57.94;99652.13;5089245;28;20836;-22
2021/08/18 05:26:30;;;;;;;47.97;14.07;;;;;;;24.10;56.22;99650.41;5089285;28;20036;-21
2021/08/18 05:28:56;;;;;;;21.10;11.50;;;;;;;24.44;56.26;99658.59;5088970;28;20380;-22
2021/08/18 05:31:21;;;;;;;16.00;9.90;;;;;;;24.40;55.53;99657.63;5088928;28;20035;-22
2021/08/18 05:33:47;;;;;;;15.38;9.00;;;;;;;24.40;55.44;99671.25;5088815;28;20032;-22
2021/08/18 05:36:12;;;;;;;20.52;8.40;;;;;;;24.52;55.37;99672.53;5088629;28;20373;-21
2021/08/18 05:38:38;;;;;;;13.93;9.27;;;;;;;24.55;55.86;99677.38;5088828;28;20081;-22
2021/08/18 05:41:03;;;;;;;15.20;8.63;;;;;;;24.50;55.74;99669.34;5088625;28;20492;-22
2021/08/18 05:43:29;;;;;;;19.13;8.80;;;;;;;24.46;56.09;99680.88;5089324;28;20032;-21
2021/08/18 05:45:54;;;;;;;10.50;7.43;;;;;;;24.87;54.86;99684.22;5088787;28;20036;-22
2021/08/18 05:48:20;;;;;;;17.13;10.70;;;;;;;24.43;56.33;99676.03;5088439;28;20036;-21
2021/08/18 05:50:45;;;;;;;16.08;9.52;;;;;;;24.67;54.84;99691.16;5088719;28;20051;-22
2021/08/18 05:53:15;;;;;;;14.23;8.25;;;;;;;24.89;55.54;99681.16;5088654;28;20369;-22
2021/08/18 05:55:42;;;;;;;14.65;9.10;;;;;;;25.14;54.21;99668.59;5088727;28;20028;-21
2021/08/18 05:58:08;;;;;;;14.33;9.47;;;;;;;25.54;53.62;99687.41;5088164;28;20052;-21
2021/08/18 06:00:33;;;;;;;12.57;8.52;;;;;;;25.67;52.17;99687.19;5070493;28;20047;-21
2021/08/18 06:02:59;;;;;;;16.35;8.18;;;;;;;25.81;51.44;99694.34;5088186;28;20500;-22
2021/08/18 06:05:24;;;;;;;14.65;8.80;;;;;;;25.86;52.11;99691.41;5088402;28;20500;-22
2021/08/18 06:07:49;;;;;;;17.60;9.50;;;;;;;25.78;50.89;99673.94;5088530;28;20032;-22
2021/08/18 06:10:15;;;;;;;30.25;17.65;;;;;;;25.84;52.23;99696.41;5087809;28;20050;-21
2021/08/18 06:12:40;;;;;;;23.42;16.10;;;;;;;25.68;51.84;99693.44;5088054;28;20027;-21
2021/08/18 06:15:06;;;;;;;14.05;8.23;;;;;;;25.34;53.86;99688.94;5088118;28;20093;-22
2021/08/18 06:17:32;;;;;;;16.80;10.05;;;;;;;25.75;52.95;99692.94;5087948;28;20038;-22
2021/08/18 06:19:57;;;;;;;20.38;12.98;;;;;;;25.92;51.32;99689.31;5088027;28;20063;-21
2021/08/18 06:22:23;;;;;;;16.38;11.23;;;;;;;25.67;52.24;99687.19;5087785;28;20032;-22
2021/08/18 06:24:51;;;;;;;19.88;11.55;;;;;;;25.59;52.07;99688.03;5088224;28;20142;-21
2021/08/18 06:27:16;;;;;;;13.32;9.93;;;;;;;25.74;50.76;99691.31;5087751;28;20020;-22
2021/08/18 06:29:42;;;;;;;16.92;10.63;;;;;;;25.93;50.97;99680.81;5087872;28;20039;-21
2021/08/18 06:32:07;;;;;;;36.85;23.92;;;;;;;26.06;50.37;99679.75;5087476;28;20028;-21
2021/08/18 06:34:33;;;;;;;35.83;26.20;;;;;;;26.29;49.84;99693.09;5087627;28;20034;-21
2021/08/18 06:37:01;;;;;;;32.72;22.52;;;;;;;26.62;49.57;99684.16;5088175;28;20909;-21
2021/08/18 06:39:31;;;;;;;16.55;12.25;;;;;;;26.46;49.73;99682.03;5087778;28;20115;-22
2021/08/18 06:41:57;;;;;;;23.25;14.98;;;;;;;26.39;50.09;99681.75;5087564;28;20031;-21
2021/08/18 06:44:22;;;;;;;24.02;17.05;;;;;;;26.10;51.13;99690.81;5087312;28;20032;-22
2021/08/18 06:46:48;;;;;;;13.38;10.15;;;;;;;26.29;48.80;99676.69;5087748;28;20039;-22
2021/08/18 06:49:13;;;;;;;13.55;7.43;;;;;;;26.49;47.50;99677.81;5088297;28;20032;-22
2021/08/18 06:51:38;;;;;;;12.13;7.55;;;;;;;26.86;45.42;99664.28;5087602;28;20922;-22
2021/08/18 06:54:05;;;;;;;12.20;7.68;;;;;;;27.00;44.54;99678.47;5087129;28;20031;-21
2021/08/18 06:56:30;;;;;;;9.23;6.95;;;;;;;27.04;43.86;99684.84;5087279;28;20558;-21
2021/08/18 06:58:56;;;;;;;8.45;6.55;;;;;;;27.22;43.98;99680.00;5087770;28;20133;-22
2021/08/18 07:01:21;;;;;;;13.65;7.35;;;;;;;26.92;44.90;99667.63;5087299;28;20476;-22
2021/08/18 07:03:46;;;;;;;12.95;7.35;;;;;;;27.28;44.49;99674.31;5087434;28;20403;-21
2021/08/18 07:06:12;;;;;;;16.02;7.53;;;;;;;27.31;44.42;99671.69;5086945;28;20031;-21
2021/08/18 07:08:37;;;;;;;10.18;6.80;;;;;;;27.40;42.97;99675.13;5086800;28;20031;-22
2021/08/18 07:11:03;;;;;;;10.70;7.70;;;;;;;27.68;42.26;99676.38;5087240;28;20047;-22
2021/08/18 07:13:28;;;;;;;17.30;11.18;;;;;;;27.60;43.11;99667.97;5087031;28;20062;-21
2021/08/18 07:15:54;;;;;;;14.43;9.65;;;;;;;27.60;42.85;99670.69;5087149;28;20035;-22
2021/08/18 07:18:21;;;;;;;16.90;7.50;;;;;;;28.02;41.89;99669.63;5087025;28;20040;-22
2021/08/18 07:20:47;;;;;;;;;;;;;;;27.75;42.01;99666.47;5087622;28;20043;-21
2021/08/18 07:23:12;;;;;;;15.40;8.38;;;;;;;27.57;43.07;99663.16;5087451;28;20022;-21
2021/08/18 07:25:37;;;;;;;11.85;7.72;;;;;;;27.75;42.32;99666.47;5087521;28;20036;-21
2021/08/18 07:28:03;;;;;;;12.55;6.85;;;;;;;27.82;42.04;99658.44;5087227;28;20035;-21
2021/08/18 07:30:29;;;;;;;10.98;7.00;;;;;;;27.75;42.09;99668.41;5086985;28;20067;-22
2021/08/18 07:32:54;;;;;;;12.05;7.22;;;;;;;27.71;42.34;99659.28;5086864;28;20073;-21
2021/08/18 07:35:19;;;;;;;13.52;7.95;;;;;;;27.78;41.78;99660.28;5087120;28;20032;-23
2021/08/18 07:37:45;;;;;;;11.90;8.20;;;;;;;27.79;42.07;99663.84;5086791;28;20028;-21
2021/08/18 07:40:10;;;;;;;12.30;7.78;;;;;;;28.06;41.15;99667.81;5086811;28;20040;-21
2021/08/18 07:42:36;;;;;;;11.93;7.07;;;;;;;28.38;41.56;99652.28;5087037;28;20024;-21
2021/08/18 07:45:02;;;;;;;12.07;7.72;;;;;;;28.43;40.34;99654.78;5086799;28;20036;-21
2021/08/18 07:47:27;;;;;;;12.02;8.13;;;;;;;28.34;41.51;99654.13;5086819;28;20035;-21
2021/08/18 07:49:52;;;;;;;15.02;7.80;;;;;;;28.23;41.32;99656.53;5086940;28;20036;-22
2021/08/18 07:52:18;;;;;;;13.88;7.63;;;;;;;28.17;41.01;99641.50;5086487;28;20028;-21
2021/08/18 07:54:46;;;;;;;13.65;7.57;;;;;;;28.43;40.59;99654.78;5086811;28;20093;-21
2021/08/18 07:57:11;;;;;;;;;;;;;;;28.88;39.86;99666.59;5087122;28;20492;-22
2021/08/18 07:59:36;;;;;;;14.90;8.10;;;;;;;28.92;40.43;99650.22;5086426;28;19920;-22
2021/08/18 08:02:02;;;;;;;12.90;7.50;;;;;;;28.92;39.91;99659.25;5086642;28;20286;-22
2021/08/18 08:04:27;;;;;;;14.45;7.97;;;;;;;29.19;39.85;99651.31;5087164;28;20094;-22
2021/08/18 08:06:53;;;;;;;15.48;8.10;;;;;;;29.27;39.17;99652.31;5086595;28;20563;-22
2021/08/18 08:09:18;;;;;;;14.43;7.60;;;;;;;29.43;38.47;99642.09;5086513;28;20035;-22
2021/08/18 08:11:45;;;;;;;9.85;7.10;;;;;;;29.31;38.79;99639.44;5086714;28;20464;-22
2021/08/18 08:14:10;;;;;;;13.52;8.13;;;;;;;29.51;38.75;99641.13;5086316;28;20039;-22
2021/08/18 08:16:36;;;;;;;13.52;8.00;;;;;;;29.58;38.74;99640.47;5086808;28;20040;-22
2021/08/18 08:19:02;;;;;;;10.32;7.72;;;;;;;29.78;37.50;99641.34;5086567;28;20442;-22
2021/08/18 08:21:27;;;;;;;15.25;8.43;;;;;;;29.79;37.73;99638.25;5087996;28;20392;-22
2021/08/18 08:23:53;;;;;;;10.30;7.70;;;;;;;30.10;37.90;99644.81;5090325;28;20076;-22
2021/08/18 08:26:18;;;;;;;13.57;7.97;;;;;;;30.02;37.24;99643.84;5089895;28;20028;-22
2021/08/18 08:28:43;;;;;;;10.57;7.80;;;;;;;29.68;38.30;99634.44;5090149;28;20028;-22
2021/08/18 08:31:09;;;;;;;11.15;7.85;;;;;;;29.73;38.24;99630.63;5090042;28;20051;-21
2021/08/18 08:33:35;;;;;;;13.60;8.30;;;;;;;30.47;37.53;99638.09;5090080;28;20028;-21
2021/08/18 08:36:00;;;;;;;11.80;7.55;;;;;;;30.19;37.90;99628.09;5089799;28;20044;-21
2021/08/18 08:38:26;;;;;;;15.20;7.53;;;;;;;30.38;36.82;99622.63;5071925;28;20413;-21
2021/08/18 08:40:51;;;;;;;12.52;8.05;;;;;;;30.42;37.02;99623.47;5071942;28;20073;-21
2021/08/18 08:43:19;;;;;;;10.95;7.90;;;;;;;30.91;36.70;99633.03;5089970;28;20024;-21
2021/08/18 08:45:47;;;;;;;11.70;7.75;;;;;;;31.11;35.93;99620.00;5089743;28;20032;-21
2021/08/18 08:48:15;;;;;;;;;;;;;;;31.21;35.74;99624.88;5090146;28;20028;-21
2021/08/18 08:50:41;;;;;;;13.70;7.72;;;;;;;31.06;34.94;99625.81;5089766;28;19912;-21
2021/08/18 08:53:06;;;;;;;9.68;7.35;;;;;;;31.06;34.90;99612.06;5089686;28;20031;-22
2021/08/18 08:55:31;;;;;;;9.02;7.43;;;;;;;30.88;35.33;99625.50;5089806;28;20514;-22
2021/08/18 08:57:57;;;;;;;12.98;7.78;;;;;;;30.86;34.77;99607.75;5089335;28;20105;-22
2021/08/18 09:00:23;;;;;;;12.48;8.20;;;;;;;30.91;34.70;99604.69;5089439;28;20032;-21
2021/08/18 09:03:05;;;;;;;11.38;7.55;;;;;;;31.07;34.51;99601.81;5071521;28;20077;-22
2021/08/18 09:05:31;;;;;;;10.65;7.53;;;;;;;31.36;34.10;99608.56;5089787;28;20487;-22
2021/08/18 09:07:57;;;;;;;12.60;7.40;;;;;;;31.37;32.86;99605.44;5089700;28;20028;-22
2021/08/18 09:10:23;;;;;;;14.20;7.97;;;;;;;31.77;34.99;99600.50;5088992;28;20036;-22
2021/08/18 09:12:48;;;;;;;11.68;8.20;;;;;;;31.92;32.66;99605.06;5088973;28;20085;-22
2021/08/18 09:15:14;;;;;;;10.27;7.90;;;;;;;31.85;32.86;99596.69;5089297;28;20510;-22
2021/08/18 09:17:40;;;;;;;11.32;7.55;;;;;;;31.81;33.19;99596.66;5089204;28;20408;-21
2021/08/18 09:20:14;;;;;;;14.02;7.68;;;;;;;32.42;31.15;99589.09;5088984;28;20484;-22
2021/08/18 09:22:45;;;;;;;10.18;7.50;;;;;;;32.56;31.87;99595.97;5071153;28;20028;-22
2021/08/18 09:25:16;;;;;;;11.70;6.93;;;;;;;32.48;31.49;99597.06;5089008;28;20097;-22
2021/08/18 09:27:42;;;;;;;10.93;7.32;;;;;;;32.61;30.36;99585.41;5089056;28;20044;-22
2021/08/18 09:30:16;;;;;;;9.73;7.45;;;;;;;33.02;30.77;99584.56;5088764;28;20020;-22
2021/08/18 09:32:41;;;;;;;11.13;7.03;;;;;;;33.01;29.89;99585.72;5088694;28;20506;-22
2021/08/18 09:35:08;;;;;;;12.88;7.90;;;;;;;33.03;28.79;99586.13;5089120;28;20032;-21
2021/08/18 09:37:35;;;;;;;12.32;7.30;;;;;;;33.26;30.31;99576.84;5088909;28;20031;-21
2021/08/18 09:40:01;;;;;;;11.30;7.32;;;;;;;33.33;30.31;99572.19;5089016;28;20062;-21
2021/08/18 09:42:33;;;;;;;12.00;7.35;;;;;;;33.36;29.04;99565.09;5088718;28;20424;-21
2021/08/18 09:45:19;;;;;;;10.18;7.70;;;;;;;33.40;29.37;99571.41;5088682;28;20049;-21
2021/08/18 09:48:01;;;;;;;12.27;7.32;;;;;;;33.93;28.56;99565.38;5088875;28;20104;-21
2021/08/18 09:50:30;;;;;;;11.02;7.53;;;;;;;33.99;29.56;99561.06;5088824;28;20476;-21
2021/08/18 09:53:04;;;;;;;12.48;7.88;;;;;;;33.35;30.46;99563.50;5088337;28;20521;-21
2021/08/18 09:55:30;;;;;;;9.90;7.38;;;;;;;33.50;29.84;99564.38;5071074;28;20032;-21
2021/08/18 09:57:56;;;;;;;9.20;7.85;;;;;;;33.25;30.77;99553.19;5088153;28;20125;-21
2021/08/18 10:00:21;;;;;;;13.15;8.50;;;;;;;33.14;31.02;99558.63;5070328;28;20028;-21
2021/08/18 10:02:47;;;;;;;11.98;7.80;;;;;;;33.21;31.29;99553.94;5088362;28;20040;-21
2021/08/18 10:05:12;;;;;;;9.93;7.57;;;;;;;33.26;30.51;99555.53;5088257;28;20488;-21
2021/08/18 10:07:38;;;;;;;10.13;7.88;;;;;;;32.77;29.92;99552.00;5088474;28;20051;-21
2021/08/18 10:10:04;;;;;;;11.40;7.88;;;;;;;32.94;29.65;99549.78;5088071;28;20081;-21
2021/08/18 10:12:32;;;;;;;9.13;7.30;;;;;;;33.38;28.33;99541.41;5088447;28;20164;-21
2021/08/18 10:15:01;;;;;;;10.95;7.88;;;;;;;33.39;29.37;99539.44;5088159;28;20031;-21
2021/08/18 10:17:29;;;;;;;12.80;8.27;;;;;;;33.49;28.74;99529.59;5087855;28;20032;-21
2021/08/18 10:19:55;;;;;;;13.10;7.70;;;;;;;33.41;30.07;99540.63;5053889;28;20444;-21
2021/08/18 10:22:27;;;;;;;13.10;7.47;;;;;;;34.34;28.40;99540.22;5069809;28;20032;-21
2021/08/18 10:24:53;;;;;;;11.65;6.97;;;;;;;33.70;28.24;99535.28;5070384;28;20031;-21
2021/08/18 10:27:47;;;;;;;11.63;7.97;;;;;;;33.56;28.58;99533.22;5087869;28;20028;-21
2021/08/18 10:30:23;;;;;;;13.23;8.07;;;;;;;34.02;27.73;99527.09;5087806;28;20025;-21
2021/08/18 10:32:49;;;;;;;15.55;8.35;;;;;;;33.64;28.58;99516.69;5087798;28;20036;-21
2021/08/18 10:35:35;;;;;;;10.45;7.53;;;;;;;33.77;28.13;99518.69;5088052;28;20473;-21
2021/08/18 10:38:21;;;;;;;;;;;;;;;33.30;28.64;99523.19;5088124;28;20067;-21
2021/08/18 10:40:46;;;;;;;10.10;7.32;;;;;;;33.53;27.08;99516.59;5073250;28;20002;-21
2021/08/18 10:43:50;;;;;;;11.65;7.80;;;;;;;33.99;27.35;99518.78;5069027;28;20039;-21
2021/08/18 10:46:15;;;;;;;11.05;7.63;;;;;;;34.35;27.18;99507.81;5087241;28;20046;-21
2021/08/18 10:48:53;;;;;;;9.20;7.03;;;;;;;33.58;27.33;99514.25;5087519;28;20490;-22
2021/08/18 10:51:40;;;;;;;10.30;7.65;;;;;;;34.55;26.19;99513.75;5087492;28;20507;-21
2021/08/18 10:54:41;;;;;;;10.95;7.13;;;;;;;34.67;26.21;99509.84;5087292;28;20024;-21
2021/08/18 10:57:52;;;;;;;10.18;7.47;;;;;;;35.19;26.33;99494.34;5044201;28;20047;-21
2021/08/18 11:00:36;;;;;;;9.85;7.68;;;;;;;35.00;26.94;99491.97;5083205;28;20515;-21
2021/08/18 11:03:11;;;;;;;8.68;6.97;;;;;;;35.11;25.76;99492.75;5087313;28;20036;-21
2021/08/18 11:05:36;;;;;;;10.77;7.25;;;;;;;35.36;25.53;99489.16;5087423;28;20035;-21
2021/08/18 11:08:18;;;;;;;10.10;6.47;;;;;;;34.68;26.08;99487.28;5087133;28;20039;-21
2021/08/18 11:10:55;;;;;;;12.00;9.02;;;;;;;34.97;25.83;99470.63;5087463;28;20077;-21
2021/08/18 11:13:43;;;;;;;8.98;7.40;;;;;;;35.30;27.03;99472.13;5087164;28;20027;-21
2021/08/18 11:16:24;;;;;;;9.38;7.07;;;;;;;34.11;27.72;99451.22;5086938;28;20111;-21
2021/08/18 11:18:53;;;;;;;11.50;7.07;;;;;;;34.84;26.33;99458.38;5087499;28;20174;-21
2021/08/18 11:21:31;;;;;;;12.32;6.97;;;;;;;34.59;27.47;99440.59;5087405;28;20111;-21
2021/08/18 11:23:59;;;;;;;8.77;6.60;;;;;;;34.66;26.75;99450.91;5069125;28;20037;-21
2021/08/18 11:26:27;;;;;;;11.93;6.82;;;;;;;34.15;28.44;99449.28;5068846;28;20024;-21